Time;durP1;ratioP1;P1;durP2;ratioP2;P2;SDS_P1;SDS_P2;PMS_P1;PMS_P2;Temp;Humidity;BMP_temperature;BMP_pressure;BME280_temperature;BME280_humidity;BME280_pressure;Samples;Min_cycle;Max_cycle;Signal;HPM_P1;HPM_P2
2022/05/11 00:00:59;;;;;;;;;;;17.00;46.50;;;;;;5027306;28;19925;-69
2022/05/11 00:03:26;;;;;;;;;;;17.00;46.30;;;;;;5014115;28;19992;-69
2022/05/11 00:05:52;;;;;;;;;;;17.00;45.80;;;;;;5022531;28;20039;-68
2022/05/11 00:08:20;;;;;;;;;;;17.00;45.70;;;;;;5012371;28;20341;-69
2022/05/11 00:10:47;;;;;;;;;;;17.00;45.60;;;;;;5013659;28;19972;-69
2022/05/11 00:13:14;;;;;;;;;;;17.00;45.50;;;;;;5019587;28;19937;-68
2022/05/11 00:15:41;;;;;;;;;;;17.00;45.40;;;;;;5023587;28;20341;-68
2022/05/11 00:18:10;;;;;;;;;;;17.00;45.50;;;;;;5023850;28;20019;-69
2022/05/11 00:20:37;;;;;;;;;;;17.00;45.50;;;;;;5026784;28;20086;-69
2022/05/11 00:23:04;;;;;;;;;;;17.00;45.60;;;;;;5023388;28;20026;-68
2022/05/11 00:25:33;;;;;;;;;;;17.00;45.80;;;;;;5014300;28;20369;-68
2022/05/11 00:27:59;;;;;;;;;;;16.90;46.00;;;;;;5018714;28;20063;-69
2022/05/11 00:30:27;;;;;;;;;;;16.90;46.20;;;;;;5016153;28;19968;-68
2022/05/11 00:32:54;;;;;;;;;;;16.90;46.40;;;;;;5013976;28;20720;-68
2022/05/11 00:35:21;;;;;;;;;;;16.90;46.70;;;;;;5024753;28;19925;-68
2022/05/11 00:37:48;;;;;;;;;;;16.90;47.20;;;;;;5021806;28;19925;-68
2022/05/11 00:40:16;;;;;;;;;;;16.90;47.50;;;;;;5020602;28;19932;-68
2022/05/11 00:42:44;;;;;;;;;;;16.90;47.90;;;;;;5021086;28;20312;-68
2022/05/11 00:45:12;;;;;;;;;;;16.80;48.10;;;;;;5015735;28;19931;-68
2022/05/11 00:47:41;;;;;;;;;;;16.80;48.20;;;;;;5018990;28;20009;-68
2022/05/11 00:50:08;;;;;;;;;;;16.90;48.10;;;;;;5022965;28;20380;-69
2022/05/11 00:52:38;;;;;;;;;;;16.90;48.20;;;;;;5011655;28;19927;-68
2022/05/11 00:55:06;;;;;;;;;;;16.90;47.90;;;;;;5012245;28;19925;-68
2022/05/11 00:57:35;;;;;;;;;;;16.80;47.90;;;;;;5011656;28;20325;-68
2022/05/11 01:00:06;;;;;;;;;;;16.80;47.70;;;;;;5015498;28;19938;-69
2022/05/11 01:02:33;;;;;;;;;;;16.80;47.60;;;;;;5017293;28;19933;-69
2022/05/11 01:05:01;;;;;;;;;;;16.80;47.60;;;;;;5022568;28;20028;-68
2022/05/11 01:07:28;;;;;;;;;;;16.80;47.50;;;;;;5021434;28;19932;-68
2022/05/11 01:09:55;;;;;;;;;;;16.80;47.60;;;;;;5026627;28;19948;-68
2022/05/11 01:12:24;;;;;;;;;;;16.80;47.50;;;;;;5017081;28;19980;-68
2022/05/11 01:14:52;;;;;;;;;;;16.80;47.50;;;;;;5021594;28;20172;-68
2022/05/11 01:17:24;;;;;;;;;;;16.80;47.50;;;;;;5025688;28;19925;-68
2022/05/11 01:19:52;;;;;;;;;;;16.80;47.50;;;;;;5020551;28;20043;-68
2022/05/11 01:22:23;;;;;;;;;;;16.80;48.10;;;;;;5021037;28;20452;-67
2022/05/11 01:24:51;;;;;;;;;;;16.80;47.50;;;;;;5015040;28;19937;-68
2022/05/11 01:27:29;;;;;;;;;;;16.80;47.80;;;;;;5014533;28;20380;-67
2022/05/11 01:29:56;;;;;;;;;;;16.70;47.80;;;;;;5015709;28;20303;-66
2022/05/11 01:32:24;;;;;;;;;;;16.80;48.00;;;;;;5026854;28;19972;-68
2022/05/11 01:34:53;;;;;;;;;;;16.70;48.10;;;;;;5029631;28;20475;-67
2022/05/11 01:37:20;;;;;;;;;;;16.70;48.50;;;;;;5021843;28;19925;-68
2022/05/11 01:39:47;;;;;;;;;;;16.70;48.70;;;;;;5015061;28;19925;-68
2022/05/11 01:42:14;;;;;;;;;;;16.80;48.90;;;;;;5018950;28;19932;-68
2022/05/11 01:44:41;;;;;;;;;;;16.80;49.30;;;;;;5029047;28;19925;-68
2022/05/11 01:47:08;;;;;;;;;;;16.70;49.40;;;;;;5024562;28;20343;-68
2022/05/11 01:49:35;;;;;;;;;;;16.70;49.80;;;;;;5024124;28;19932;-68
2022/05/11 01:52:02;;;;;;;;;;;16.70;50.00;;;;;;5026392;28;19925;-68
2022/05/11 01:54:28;;;;;;;;;;;16.70;50.20;;;;;;5024614;28;19926;-68
2022/05/11 01:56:55;;;;;;;;;;;16.70;50.40;;;;;;5014346;28;19987;-68
2022/05/11 01:59:23;;;;;;;;;;;16.60;50.50;;;;;;5015258;28;19932;-68
2022/05/11 02:01:50;;;;;;;;;;;16.60;50.60;;;;;;5021727;28;19991;-68
2022/05/11 02:09:42;;;;;;;;;;;16.60;50.60;;;;;;4998848;28;20273;-68
2022/05/11 02:12:09;;;;;;;;;;;16.60;50.80;;;;;;5014969;28;19943;-68
2022/05/11 02:14:37;;;;;;;;;;;16.50;50.50;;;;;;5013369;28;20041;-68
2022/05/11 02:17:04;;;;;;;;;;;16.50;50.80;;;;;;5013996;28;19976;-68
2022/05/11 02:19:30;;;;;;;;;;;16.50;51.20;;;;;;5023436;28;20020;-68
2022/05/11 02:21:57;;;;;;;;;;;16.50;50.60;;;;;;5015234;28;20006;-68
2022/05/11 02:24:24;;;;;;;;;;;16.40;50.70;;;;;;5032804;28;20344;-68
2022/05/11 02:26:51;;;;;;;;;;;16.40;50.70;;;;;;5017768;28;19936;-68
2022/05/11 02:29:17;;;;;;;;;;;16.40;50.80;;;;;;5014834;28;19933;-68
2022/05/11 02:31:45;;;;;;;;;;;16.40;51.00;;;;;;5019528;28;20024;-68
2022/05/11 02:35:12;;;;;;;;;;;16.40;51.20;;;;;;5016135;28;20373;-68
2022/05/11 02:36:59;;;;;;;;;;;16.40;51.50;;;;;;5029577;28;19925;-68
2022/05/11 02:39:25;;;;;;;;;;;16.30;51.50;;;;;;5016829;28;20377;-68
2022/05/11 02:41:53;;;;;;;;;;;16.30;51.90;;;;;;5017095;28;20444;-68
2022/05/11 02:44:20;;;;;;;;;;;16.30;52.20;;;;;;5032162;28;19964;-68
2022/05/11 02:46:49;;;;;;;;;;;16.20;52.60;;;;;;5021912;28;19932;-69
2022/05/11 02:49:15;;;;;;;;;;;16.20;53.00;;;;;;5019535;28;19930;-69
2022/05/11 02:51:42;;;;;;;;;;;16.20;53.40;;;;;;5020429;28;19932;-68
2022/05/11 02:54:09;;;;;;;;;;;16.20;53.70;;;;;;5012332;28;20689;-68
2022/05/11 02:56:36;;;;;;;;;;;16.10;54.10;;;;;;5018114;28;19941;-69
2022/05/11 02:59:03;;;;;;;;;;;16.10;54.50;;;;;;5013345;28;20004;-68
2022/05/11 03:01:29;;;;;;;;;;;16.10;54.90;;;;;;5026256;28;19948;-69
2022/05/11 03:03:58;;;;;;;;;;;16.10;55.30;;;;;;5026492;28;19933;-69
2022/05/11 03:06:25;;;;;;;;;;;16.00;55.60;;;;;;5017133;28;19957;-67
2022/05/11 03:08:51;;;;;;;;;;;16.00;56.10;;;;;;5024603;28;19932;-67
2022/05/11 03:11:18;;;;;;;;;;;16.00;56.50;;;;;;5013713;28;20014;-67
2022/05/11 03:13:45;;;;;;;;;;;15.90;56.90;;;;;;5022241;28;20308;-67
2022/05/11 03:16:11;;;;;;;;;;;15.90;57.20;;;;;;5018243;28;19925;-67
2022/05/11 03:18:38;;;;;;;;;;;15.80;57.60;;;;;;5013194;28;20291;-67
2022/05/11 03:21:06;;;;;;;;;;;15.80;58.10;;;;;;5013100;28;20004;-68
2022/05/11 03:23:33;;;;;;;;;;;15.70;58.40;;;;;;5015326;28;19973;-67
2022/05/11 03:25:59;;;;;;;;;;;15.70;58.90;;;;;;5016514;28;19925;-67
2022/05/11 03:28:26;;;;;;;;;;;15.60;59.30;;;;;;5014094;28;20385;-69
2022/05/11 03:30:53;;;;;;;;;;;15.60;59.60;;;;;;5022781;28;20389;-68
2022/05/11 03:36:06;;;;;;;;;;;15.50;60.60;;;;;;5025686;28;20396;-69
2022/05/11 03:38:32;;;;;;;;;;;15.40;61.10;;;;;;5019556;28;19926;-69
2022/05/11 03:40:59;;;;;;;;;;;15.40;61.50;;;;;;5016782;28;19925;-69
2022/05/11 03:43:26;;;;;;;;;;;15.40;62.10;;;;;;5013517;28;19925;-68
2022/05/11 03:45:52;;;;;;;;;;;15.40;62.90;;;;;;5017462;28;20185;-68
2022/05/11 03:48:19;;;;;;;;;;;15.30;63.70;;;;;;5016101;28;20253;-69
2022/05/11 03:50:46;;;;;;;;;;;15.20;64.40;;;;;;5024286;28;19925;-70
2022/05/11 03:53:14;;;;;;;;;;;15.20;65.40;;;;;;5016156;28;19964;-69
2022/05/11 03:55:41;;;;;;;;;;;15.20;66.40;;;;;;5021540;28;19925;-69
2022/05/11 03:58:07;;;;;;;;;;;15.10;67.50;;;;;;5023570;28;19972;-68
2022/05/11 04:00:34;;;;;;;;;;;15.10;68.70;;;;;;5022576;28;20024;-69
2022/05/11 04:03:01;;;;;;;;;;;15.00;69.80;;;;;;5023576;28;20027;-69
2022/05/11 04:05:28;;;;;;;;;;;15.00;71.20;;;;;;5018057;28;20355;-68
2022/05/11 04:07:54;;;;;;;;;;;14.90;72.40;;;;;;5016712;28;19933;-68
2022/05/11 04:10:22;;;;;;;;;;;14.90;73.60;;;;;;5019861;28;20013;-68
2022/05/11 04:12:50;;;;;;;;;;;14.90;74.70;;;;;;5015070;28;19968;-69
2022/05/11 04:15:16;;;;;;;;;;;14.80;75.60;;;;;;5017247;28;19934;-70
2022/05/11 04:17:43;;;;;;;;;;;14.80;76.60;;;;;;5012907;28;20217;-70
2022/05/11 04:20:12;;;;;;;;;;;14.80;77.50;;;;;;5015539;28;19925;-70
2022/05/11 04:22:39;;;;;;;;;;;14.70;78.20;;;;;;5021059;28;19926;-71
2022/05/11 04:25:06;;;;;;;;;;;14.70;79.10;;;;;;5016409;28;19929;-68
2022/05/11 04:27:34;;;;;;;;;;;14.70;79.90;;;;;;5025288;28;20357;-68
2022/05/11 04:30:01;;;;;;;;;;;14.70;80.60;;;;;;5022187;28;19925;-69
2022/05/11 04:32:28;;;;;;;;;;;14.70;81.40;;;;;;5015533;28;19932;-70
2022/05/11 04:34:55;;;;;;;;;;;14.60;81.90;;;;;;5013596;28;19936;-70
2022/05/11 04:37:21;;;;;;;;;;;14.60;82.80;;;;;;5013264;28;19925;-70
2022/05/11 04:39:48;;;;;;;;;;;14.60;84.00;;;;;;5017769;28;20296;-69
2022/05/11 04:42:15;;;;;;;;;;;14.50;84.50;;;;;;5016272;28;20365;-69
2022/05/11 04:44:43;;;;;;;;;;;14.50;85.30;;;;;;5011608;28;20455;-70
2022/05/11 04:47:12;;;;;;;;;;;14.60;86.10;;;;;;5019194;28;19926;-70
2022/05/11 04:49:38;;;;;;;;;;;14.50;86.60;;;;;;5011819;28;19925;-70
2022/05/11 04:52:07;;;;;;;;;;;14.50;86.10;;;;;;5022862;28;19929;-70
2022/05/11 04:54:35;;;;;;;;;;;14.60;86.00;;;;;;5033452;28;19925;-70
2022/05/11 04:57:01;;;;;;;;;;;14.60;85.50;;;;;;5016265;28;19925;-70
2022/05/11 04:59:28;;;;;;;;;;;14.60;85.30;;;;;;5025665;28;19925;-69
2022/05/11 05:01:59;;;;;;;;;;;14.60;85.30;;;;;;5017120;28;20028;-69
2022/05/11 05:04:26;;;;;;;;;;;14.60;85.10;;;;;;5026917;28;19929;-69
2022/05/11 05:06:52;;;;;;;;;;;14.70;85.10;;;;;;5021883;28;19940;-69
2022/05/11 05:09:19;;;;;;;;;;;14.70;85.00;;;;;;5015633;28;20447;-69
2022/05/11 05:11:46;;;;;;;;;;;14.70;84.40;;;;;;5018676;28;19925;-69
2022/05/11 05:14:12;;;;;;;;;;;14.70;82.80;;;;;;5023675;28;19925;-70
2022/05/11 05:16:39;;;;;;;;;;;14.70;81.70;;;;;;5015646;28;19926;-69
2022/05/11 05:19:08;;;;;;;;;;;14.80;81.90;;;;;;5016224;28;19925;-69
2022/05/11 05:21:34;;;;;;;;;;;14.80;79.80;;;;;;5015310;28;19932;-69
2022/05/11 05:24:01;;;;;;;;;;;14.80;79.60;;;;;;5020102;28;20236;-70
2022/05/11 05:26:28;;;;;;;;;;;14.80;79.00;;;;;;5016972;28;19926;-69
2022/05/11 05:31:39;;;;;;;;;;;14.90;76.60;;;;;;5020992;28;19956;-70
2022/05/11 05:34:07;;;;;;;;;;;15.00;76.20;;;;;;5027681;28;19926;-69
2022/05/11 05:36:36;;;;;;;;;;;15.00;74.70;;;;;;5024405;28;19929;-69
2022/05/11 05:39:04;;;;;;;;;;;15.10;74.30;;;;;;5019360;28;20024;-69
2022/05/11 05:41:30;;;;;;;;;;;15.10;72.90;;;;;;5017389;28;19933;-70
2022/05/11 05:43:57;;;;;;;;;;;15.10;72.50;;;;;;5020616;28;19933;-69
2022/05/11 05:46:24;;;;;;;;;;;15.10;71.50;;;;;;5015493;28;19992;-69
2022/05/11 05:48:51;;;;;;;;;;;15.20;71.00;;;;;;5015080;28;19933;-71
2022/05/11 05:51:20;;;;;;;;;;;15.30;70.20;;;;;;5015149;28;20064;-69
2022/05/11 05:53:50;;;;;;;;;;;16.10;68.60;;;;;;5017182;28;19925;-69
2022/05/11 05:56:17;;;;;;;;;;;17.20;60.40;;;;;;5016937;28;19930;-70
2022/05/11 05:58:45;;;;;;;;;;;18.20;57.80;;;;;;5018074;28;19933;-69
2022/05/11 06:01:13;;;;;;;;;;;19.00;53.90;;;;;;5026183;28;19925;-68
2022/05/11 06:03:39;;;;;;;;;;;19.90;49.50;;;;;;5019747;28;19937;-69
2022/05/11 06:06:07;;;;;;;;;;;19.20;46.40;;;;;;5014973;28;20534;-67
2022/05/11 06:08:36;;;;;;;;;;;18.00;48.00;;;;;;5027122;28;19925;-67
2022/05/11 06:11:03;;;;;;;;;;;17.20;50.00;;;;;;5017315;28;19933;-71
2022/05/11 06:13:29;;;;;;;;;;;16.70;52.10;;;;;;5021702;28;20425;-70
2022/05/11 06:15:57;;;;;;;;;;;16.40;52.90;;;;;;5018783;28;20025;-70
2022/05/11 06:18:24;;;;;;;;;;;16.20;54.00;;;;;;5017047;28;19924;-68
2022/05/11 06:20:52;;;;;;;;;;;16.10;54.20;;;;;;5021918;28;19926;-70
2022/05/11 06:23:19;;;;;;;;;;;16.00;54.70;;;;;;5022515;28;19925;-69
2022/05/11 06:25:49;;;;;;;;;;;16.00;53.90;;;;;;5018526;28;20387;-72
2022/05/11 06:28:16;;;;;;;;;;;15.80;53.20;;;;;;5018990;28;20381;-69
2022/05/11 06:30:42;;;;;;;;;;;15.90;53.90;;;;;;5016490;28;19925;-70
2022/05/11 06:33:09;;;;;;;;;;;16.00;53.50;;;;;;5013272;28;19941;-70
2022/05/11 06:35:36;;;;;;;;;;;16.10;52.90;;;;;;5017757;28;20019;-70
2022/05/11 06:38:05;;;;;;;;;;;16.20;52.50;;;;;;5016923;28;20024;-69
2022/05/11 06:40:33;;;;;;;;;;;16.20;49.60;;;;;;5019275;28;20398;-70
2022/05/11 06:43:02;;;;;;;;;;;16.20;48.50;;;;;;5019417;28;19933;-70
2022/05/11 06:45:29;;;;;;;;;;;16.20;47.40;;;;;;5018721;28;20055;-71
2022/05/11 06:47:55;;;;;;;;;;;16.30;47.00;;;;;;5019046;28;20390;-70
2022/05/11 06:50:24;;;;;;;;;;;16.70;46.70;;;;;;5024649;28;20463;-71
2022/05/11 06:52:51;;;;;;;;;;;18.90;43.20;;;;;;5015526;28;20450;-70
2022/05/11 07:00:48;;;;;;;;;;;23.50;28.20;;;;;;5026472;28;20320;-70
2022/05/11 07:03:15;;;;;;;;;;;23.40;24.70;;;;;;5016033;28;19940;-70
2022/05/11 07:05:42;;;;;;;;;;;23.30;24.20;;;;;;5020499;28;19932;-70
2022/05/11 07:08:09;;;;;;;;;;;23.70;23.70;;;;;;5018881;28;20540;-71
2022/05/11 07:10:37;;;;;;;;;;;24.60;22.60;;;;;;5003100;28;19929;-71
2022/05/11 07:13:05;;;;;;;;;;;24.80;20.80;;;;;;5009491;28;20019;-70
2022/05/11 07:15:32;;;;;;;;;;;24.30;20.40;;;;;;5019997;28;19936;-70
2022/05/11 07:17:59;;;;;;;;;;;23.60;20.40;;;;;;5020225;28;20521;-68
2022/05/11 07:20:29;;;;;;;;;;;22.90;21.40;;;;;;5015162;28;19948;-69
2022/05/11 07:22:56;;;;;;;;;;;22.80;21.30;;;;;;5022109;28;19945;-68
2022/05/11 07:25:25;;;;;;;;;;;23.30;20.80;;;;;;5018967;28;19933;-70
2022/05/11 07:27:52;;;;;;;;;;;23.00;20.60;;;;;;5016256;28;19925;-69
2022/05/11 07:30:21;;;;;;;;;;;23.20;20.60;;;;;;5010690;28;20048;-70
2022/05/11 07:32:47;;;;;;;;;;;24.10;20.20;;;;;;5015613;28;19929;-70
2022/05/11 07:35:14;;;;;;;;;;;24.50;19.40;;;;;;5014238;28;20434;-70
2022/05/11 07:37:41;;;;;;;;;;;24.90;18.70;;;;;;5011794;28;20028;-70
2022/05/11 07:40:09;;;;;;;;;;;24.50;19.80;;;;;;5015366;28;19926;-71
2022/05/11 07:42:35;;;;;;;;;;;25.00;19.30;;;;;;5021965;28;19955;-71
2022/05/11 07:45:03;;;;;;;;;;;26.00;18.30;;;;;;5012776;28;20529;-70
2022/05/11 07:47:32;;;;;;;;;;;26.50;16.80;;;;;;5010245;28;20395;-70
2022/05/11 07:49:59;;;;;;;;;;;25.90;17.40;;;;;;5013066;28;20016;-71
2022/05/11 07:52:25;;;;;;;;;;;26.70;17.30;;;;;;5017483;28;19925;-70
2022/05/11 07:54:52;;;;;;;;;;;26.50;16.90;;;;;;5019108;28;20016;-71
2022/05/11 08:00:06;;;;;;;;;;;27.00;16.30;;;;;;5012831;28;19937;-68
2022/05/11 08:02:35;;;;;;;;;;;27.00;15.70;;;;;;5012794;28;19933;-70
2022/05/11 08:05:03;;;;;;;;;;;25.40;17.00;;;;;;5018778;28;20016;-70
2022/05/11 08:07:37;;;;;;;;;;;25.60;18.20;;;;;;5018348;28;20307;-70
2022/05/11 08:10:04;;;;;;;;;;;26.10;17.10;;;;;;5017466;28;20939;-69
2022/05/11 08:12:31;;;;;;;;;;;25.00;17.50;;;;;;5016439;28;20016;-68
2022/05/11 08:14:57;;;;;;;;;;;24.70;18.40;;;;;;5013942;28;19939;-67
2022/05/11 08:17:28;;;;;;;;;;;24.80;18.80;;;;;;5018195;28;20019;-68
2022/05/11 08:19:56;;;;;;;;;;;25.80;18.40;;;;;;5017215;28;20043;-66
2022/05/11 08:22:24;;;;;;;;;;;26.10;16.90;;;;;;5016676;28;20144;-67
2022/05/11 08:24:51;;;;;;;;;;;26.00;17.50;;;;;;5021223;28;19936;-65
2022/05/11 08:27:20;;;;;;;;;;;26.70;16.60;;;;;;5020030;28;20012;-65
2022/05/11 08:35:17;;;;;;;;;;;25.30;18.50;;;;;;5011597;28;20030;-64
2022/05/11 08:37:44;;;;;;;;;;;24.70;18.70;;;;;;5025724;28;19929;-64
2022/05/11 08:40:13;;;;;;;;;;;23.90;19.10;;;;;;5025762;28;19931;-63
2022/05/11 08:42:39;;;;;;;;;;;22.50;20.90;;;;;;5020053;28;19948;-64
2022/05/11 08:45:07;;;;;;;;;;;22.00;22.50;;;;;;5012911;28;20273;-67
2022/05/11 08:47:44;;;;;;;;;;;23.10;21.50;;;;;;5010611;28;19925;-67
2022/05/11 08:50:13;;;;;;;;;;;23.40;20.60;;;;;;5011638;28;19933;-67
2022/05/11 08:52:47;;;;;;;;;;;22.30;21.80;;;;;;5015931;28;20269;-65
2022/05/11 08:55:18;;;;;;;;;;;21.80;23.00;;;;;;5019447;28;20447;-67
2022/05/11 08:57:48;;;;;;;;;;;22.60;23.30;;;;;;5011586;28;19925;-65
2022/05/11 09:00:17;;;;;;;;;;;22.90;21.70;;;;;;5013953;28;19979;-65
2022/05/11 09:02:49;;;;;;;;;;;22.80;21.90;;;;;;5016476;28;20026;-66
2022/05/11 09:05:20;;;;;;;;;;;22.80;22.00;;;;;;5021058;28;20421;-66
2022/05/11 09:07:51;;;;;;;;;;;23.90;21.40;;;;;;5018974;28;19933;-66
2022/05/11 09:10:21;;;;;;;;;;;23.20;21.50;;;;;;5020307;28;19933;-65
2022/05/11 09:12:52;;;;;;;;;;;22.20;22.40;;;;;;5016898;28;19935;-65
2022/05/11 09:15:18;;;;;;;;;;;22.10;23.70;;;;;;5019541;28;19925;-67
2022/05/11 09:17:45;;;;;;;;;;;22.40;23.20;;;;;;5026716;28;20008;-67
2022/05/11 09:20:13;;;;;;;;;;;22.50;23.30;;;;;;5016746;28;19925;-67
2022/05/11 09:22:41;;;;;;;;;;;23.40;22.60;;;;;;5021781;28;19972;-68
2022/05/11 09:25:16;;;;;;;;;;;24.50;20.60;;;;;;5014828;28;19936;-66
2022/05/11 09:27:43;;;;;;;;;;;24.30;20.30;;;;;;5021779;28;19952;-68
2022/05/11 09:30:16;;;;;;;;;;;24.80;20.20;;;;;;5022055;28;20007;-67
2022/05/11 09:32:44;;;;;;;;;;;24.50;20.60;;;;;;5027877;28;19932;-68
2022/05/11 09:35:19;;;;;;;;;;;25.40;20.20;;;;;;5020076;28;20012;-66
2022/05/11 09:37:46;;;;;;;;;;;26.00;19.30;;;;;;5019754;28;20015;-66
2022/05/11 09:40:17;;;;;;;;;;;25.70;19.90;;;;;;5022368;28;19928;-66
2022/05/11 09:42:50;;;;;;;;;;;25.60;20.00;;;;;;5024763;28;20012;-68
2022/05/11 09:45:32;;;;;;;;;;;26.20;19.70;;;;;;5021935;28;19955;-66
2022/05/11 09:48:08;;;;;;;;;;;26.10;18.80;;;;;;5019171;28;20279;-66
2022/05/11 09:50:38;;;;;;;;;;;24.80;20.30;;;;;;5021243;28;19935;-67
2022/05/11 09:53:10;;;;;;;;;;;24.60;21.70;;;;;;5019698;28;19925;-67
2022/05/11 09:55:38;;;;;;;;;;;25.60;21.40;;;;;;5021977;28;20364;-66
2022/05/11 09:58:06;;;;;;;;;;;26.10;20.30;;;;;;5015999;28;19951;-66
2022/05/11 10:00:34;;;;;;;;;;;25.90;20.10;;;;;;5017172;28;19933;-67
2022/05/11 10:03:04;;;;;;;;;;;25.30;20.50;;;;;;5018899;28;20011;-66
2022/05/11 10:05:32;;;;;;;;;;;24.20;22.40;;;;;;5019147;28;20023;-66
2022/05/11 10:08:06;;;;;;;;;;;23.50;24.20;;;;;;5017229;28;19937;-66
2022/05/11 10:10:35;;;;;;;;;;;22.80;25.00;;;;;;5018233;28;19991;-67
2022/05/11 10:13:09;;;;;;;;;;;22.60;25.40;;;;;;5021294;28;19925;-67
2022/05/11 10:24:04;;;;;;;;;;;21.50;28.50;;;;;;5018717;28;20027;-67
2022/05/11 10:26:35;;;;;;;;;;;21.60;27.70;;;;;;5020749;28;20327;-67
2022/05/11 10:29:08;;;;;;;;;;;21.40;28.40;;;;;;5018374;28;20538;-68
2022/05/11 10:31:36;;;;;;;;;;;21.10;28.50;;;;;;5016655;28;19948;-68
2022/05/11 10:34:09;;;;;;;;;;;21.00;29.30;;;;;;5024132;28;19926;-68
2022/05/11 10:36:39;;;;;;;;;;;21.10;28.90;;;;;;5019372;28;19932;-67
2022/05/11 10:39:22;;;;;;;;;;;21.10;28.60;;;;;;5017854;28;20029;-67
2022/05/11 10:41:52;;;;;;;;;;;21.10;29.70;;;;;;5018713;28;19932;-67
2022/05/11 10:44:28;;;;;;;;;;;21.20;29.70;;;;;;5028011;28;19939;-67
2022/05/11 10:46:58;;;;;;;;;;;21.20;29.20;;;;;;5014539;28;19991;-67
2022/05/11 10:49:36;;;;;;;;;;;21.20;29.00;;;;;;5017397;28;19926;-67
2022/05/11 10:52:13;;;;;;;;;;;21.20;28.40;;;;;;5026597;28;19957;-66
2022/05/11 10:54:44;;;;;;;;;;;21.00;29.90;;;;;;5020551;28;20479;-68
2022/05/11 10:57:16;;;;;;;;;;;21.30;29.50;;;;;;5014051;28;19932;-66
2022/05/11 10:59:56;;;;;;;;;;;21.30;29.10;;;;;;5016695;28;19933;-67
2022/05/11 11:02:40;;;;;;;;;;;21.30;29.40;;;;;;5018901;28;20308;-67
2022/05/11 11:05:10;;;;;;;;;;;21.50;29.10;;;;;;5014284;28;20359;-67
2022/05/11 11:07:40;;;;;;;;;;;21.70;29.10;;;;;;5016246;28;19935;-72
2022/05/11 11:10:12;;;;;;;;;;;21.80;28.60;;;;;;5017993;28;19929;-74
2022/05/11 11:12:48;;;;;;;;;;;21.90;28.50;;;;;;5024722;28;20424;-75
2022/05/11 11:15:19;;;;;;;;;;;22.20;28.80;;;;;;5019312;28;22139;-73
2022/05/11 11:17:47;;;;;;;;;;;22.40;28.40;;;;;;5023475;28;19925;-74
2022/05/11 11:20:17;;;;;;;;;;;22.40;28.30;;;;;;5023917;28;19925;-74
2022/05/11 11:23:03;;;;;;;;;;;22.60;27.60;;;;;;5024185;28;19934;-74
2022/05/11 11:25:43;;;;;;;;;;;22.30;27.50;;;;;;5019692;28;19999;-74
2022/05/11 11:28:13;;;;;;;;;;;22.20;28.60;;;;;;5021719;28;19968;-73
2022/05/11 11:30:42;;;;;;;;;;;22.30;28.20;;;;;;5024245;28;19929;-73
2022/05/11 11:33:21;;;;;;;;;;;22.40;28.00;;;;;;5024642;28;20012;-73
2022/05/11 11:35:53;;;;;;;;;;;22.30;28.70;;;;;;5018130;28;19926;-73
2022/05/11 11:38:24;;;;;;;;;;;22.40;28.50;;;;;;5015431;28;20440;-74
2022/05/11 11:41:05;;;;;;;;;;;22.60;29.00;;;;;;5017644;28;20031;-74
2022/05/11 11:43:43;;;;;;;;;;;22.90;28.10;;;;;;5022436;28;19940;-74
2022/05/11 11:46:27;;;;;;;;;;;23.20;26.90;;;;;;5025829;28;20381;-74
2022/05/11 11:49:01;;;;;;;;;;;23.40;26.50;;;;;;5014937;28;19933;-73
2022/05/11 11:51:33;;;;;;;;;;;23.00;26.20;;;;;;5016159;28;20032;-73
2022/05/11 11:53:59;;;;;;;;;;;22.50;26.60;;;;;;5026401;28;19983;-73
2022/05/11 11:56:37;;;;;;;;;;;22.30;27.10;;;;;;5023619;28;20003;-72
2022/05/11 11:59:04;;;;;;;;;;;22.30;27.60;;;;;;5021819;28;20021;-72
2022/05/11 12:01:33;;;;;;;;;;;22.40;27.90;;;;;;5013459;28;20416;-72
2022/05/11 12:04:02;;;;;;;;;;;22.50;27.60;;;;;;5027732;28;19930;-73
2022/05/11 12:15:04;;;;;;;;;;;22.60;27.40;;;;;;5018472;28;20020;-73
2022/05/11 12:17:35;;;;;;;;;;;22.90;26.20;;;;;;5019664;28;20028;-72
2022/05/11 12:20:05;;;;;;;;;;;22.70;25.80;;;;;;5024403;28;20407;-73
2022/05/11 12:22:32;;;;;;;;;;;22.70;26.50;;;;;;5025588;28;20431;-72
2022/05/11 12:25:01;;;;;;;;;;;22.70;26.40;;;;;;5025361;28;19933;-71
2022/05/11 12:27:29;;;;;;;;;;;22.70;25.60;;;;;;5018391;28;19929;-72
2022/05/11 12:29:59;;;;;;;;;;;22.70;26.10;;;;;;5020228;28;20033;-72
2022/05/11 12:32:30;;;;;;;;;;;22.80;26.10;;;;;;5019433;28;20278;-71
2022/05/11 12:35:06;;;;;;;;;;;23.00;25.80;;;;;;5021604;28;19939;-72
2022/05/11 12:37:34;;;;;;;;;;;23.10;26.10;;;;;;5016872;28;19940;-72
2022/05/11 12:40:02;;;;;;;;;;;23.10;26.60;;;;;;5017424;28;19933;-73
2022/05/11 12:42:35;;;;;;;;;;;23.10;26.10;;;;;;5022351;28;19964;-72
2022/05/11 12:45:02;;;;;;;;;;;22.90;26.30;;;;;;5017374;28;20020;-71
2022/05/11 12:47:29;;;;;;;;;;;23.00;26.30;;;;;;5019867;28;19935;-72
2022/05/11 12:49:56;;;;;;;;;;;23.20;25.80;;;;;;5019275;28;19929;-72
2022/05/11 12:52:27;;;;;;;;;;;23.10;25.40;;;;;;5019821;28;19929;-72
2022/05/11 12:54:58;;;;;;;;;;;23.20;25.70;;;;;;5014237;28;20027;-68
2022/05/11 12:57:34;;;;;;;;;;;23.20;25.70;;;;;;5016858;28;19933;-70
2022/05/11 13:00:01;;;;;;;;;;;23.40;25.60;;;;;;5012281;28;19925;-73
2022/05/11 13:02:32;;;;;;;;;;;23.30;25.40;;;;;;5014557;28;20252;-73
2022/05/11 13:05:00;;;;;;;;;;;23.40;25.40;;;;;;5014379;28;19976;-73
2022/05/11 13:07:30;;;;;;;;;;;23.40;24.90;;;;;;5013181;28;19933;-72
2022/05/11 13:09:59;;;;;;;;;;;23.60;24.80;;;;;;5014659;28;20020;-72
2022/05/11 13:12:27;;;;;;;;;;;23.30;24.10;;;;;;5013855;28;19933;-73
2022/05/11 13:14:54;;;;;;;;;;;23.30;24.30;;;;;;5018584;28;20285;-72
2022/05/11 13:17:22;;;;;;;;;;;23.50;24.30;;;;;;5019447;28;20391;-74
2022/05/11 13:19:53;;;;;;;;;;;23.60;24.50;;;;;;5022202;28;20029;-72
2022/05/11 13:22:22;;;;;;;;;;;23.60;23.80;;;;;;5026982;28;20356;-73
2022/05/11 13:24:51;;;;;;;;;;;23.20;24.70;;;;;;5028222;28;19953;-73
2022/05/11 13:27:38;;;;;;;;;;;23.10;25.20;;;;;;5019937;28;19933;-74
2022/05/11 13:30:13;;;;;;;;;;;23.40;25.40;;;;;;5015050;28;19976;-74
2022/05/11 13:32:41;;;;;;;;;;;23.70;24.60;;;;;;5031127;28;20485;-74
2022/05/11 13:35:15;;;;;;;;;;;24.10;24.00;;;;;;5018006;28;19996;-74
2022/05/11 13:37:42;;;;;;;;;;;24.10;23.40;;;;;;5016833;28;19929;-74
2022/05/11 13:40:11;;;;;;;;;;;23.70;23.90;;;;;;5020438;28;19931;-74
2022/05/11 13:42:43;;;;;;;;;;;23.90;23.90;;;;;;5022543;28;19976;-74
2022/05/11 13:45:10;;;;;;;;;;;24.00;23.80;;;;;;5022670;28;19925;-74
2022/05/11 13:50:35;;;;;;;;;;;24.20;24.30;;;;;;5020867;28;19940;-75
2022/05/11 13:53:04;;;;;;;;;;;24.40;23.60;;;;;;5026032;28;19925;-75
2022/05/11 13:55:33;;;;;;;;;;;24.20;24.10;;;;;;5021665;28;19925;-73
2022/05/11 13:58:19;;;;;;;;;;;24.20;23.90;;;;;;5022951;28;20288;-72
2022/05/11 14:00:45;;;;;;;;;;;24.40;23.10;;;;;;5023753;28;19929;-72
2022/05/11 14:03:15;;;;;;;;;;;24.30;23.80;;;;;;5026349;28;19972;-72
2022/05/11 14:05:42;;;;;;;;;;;24.30;23.40;;;;;;5024731;28;20452;-72
2022/05/11 14:08:08;;;;;;;;;;;23.90;23.70;;;;;;5027864;28;19925;-72
2022/05/11 14:10:36;;;;;;;;;;;23.70;23.80;;;;;;5025420;28;20004;-74
2022/05/11 14:13:03;;;;;;;;;;;24.00;23.70;;;;;;5024883;28;19925;-73
2022/05/11 14:15:30;;;;;;;;;;;24.20;23.30;;;;;;5012590;28;20024;-69
2022/05/11 14:17:57;;;;;;;;;;;24.00;23.40;;;;;;5022320;28;20390;-72
2022/05/11 14:20:26;;;;;;;;;;;24.00;23.70;;;;;;5022790;28;19933;-74
2022/05/11 14:22:52;;;;;;;;;;;24.20;23.80;;;;;;5019212;28;20012;-72
2022/05/11 14:25:19;;;;;;;;;;;24.00;23.90;;;;;;5014859;28;19936;-72
2022/05/11 14:27:48;;;;;;;;;;;24.20;23.80;;;;;;5020106;28;20000;-73
2022/05/11 14:30:15;;;;;;;;;;;24.20;23.90;;;;;;5025666;28;19956;-72
2022/05/11 14:32:43;;;;;;;;;;;24.20;24.30;;;;;;5021915;28;19932;-74
2022/05/11 14:35:11;;;;;;;;;;;24.40;24.00;;;;;;5014825;28;19935;-75
2022/05/11 14:37:39;;;;;;;;;;;24.30;24.00;;;;;;5020337;28;19926;-75
2022/05/11 14:40:07;;;;;;;;;;;24.20;24.20;;;;;;5024243;28;19931;-74
2022/05/11 14:42:34;;;;;;;;;;;24.20;24.10;;;;;;5016162;28;19925;-74
2022/05/11 14:45:03;;;;;;;;;;;24.20;24.20;;;;;;5021372;28;19955;-73
2022/05/11 14:47:31;;;;;;;;;;;24.60;24.80;;;;;;5019309;28;19929;-73
2022/05/11 14:49:59;;;;;;;;;;;24.70;23.60;;;;;;5016666;28;19948;-74
2022/05/11 14:52:25;;;;;;;;;;;24.40;23.40;;;;;;5022410;28;19925;-73
2022/05/11 14:54:52;;;;;;;;;;;24.40;23.70;;;;;;5016933;28;19936;-67
2022/05/11 15:03:04;;;;;;;;;;;23.50;24.90;;;;;;4975313;28;19936;-67
2022/05/11 15:05:31;;;;;;;;;;;23.80;23.90;;;;;;5001916;28;19952;-66
2022/05/11 15:07:57;;;;;;;;;;;24.00;23.90;;;;;;5023324;28;19933;-67
2022/05/11 15:10:24;;;;;;;;;;;24.00;24.10;;;;;;5022217;28;19940;-68
2022/05/11 15:15:37;;;;;;;;;;;23.70;24.70;;;;;;5018454;28;20451;-67
2022/05/11 15:18:06;;;;;;;;;;;23.40;24.70;;;;;;5024167;28;19937;-68